sensor_id;sensor_type;location;lat;lon;timestamp;P1;durP1;ratioP1;P2;durP2;ratioP2
77451;SDS011;66537;52.370;4.832;2023-05-10T00:01:01;60.78;;;30.92;;
77451;SDS011;66537;52.370;4.832;2023-05-10T00:03:27;47.08;;;25.80;;
77451;SDS011;66537;52.370;4.832;2023-05-10T00:05:52;50.25;;;27.80;;
77451;SDS011;66537;52.370;4.832;2023-05-10T00:08:18;47.47;;;26.85;;
77451;SDS011;66537;52.370;4.832;2023-05-10T00:10:43;48.03;;;25.40;;
77451;SDS011;66537;52.370;4.832;2023-05-10T00:13:09;47.60;;;26.42;;
77451;SDS011;66537;52.370;4.832;2023-05-10T00:15:34;52.58;;;28.15;;
77451;SDS011;66537;52.370;4.832;2023-05-10T00:17:59;51.83;;;27.23;;
77451;SDS011;66537;52.370;4.832;2023-05-10T00:20:25;47.42;;;23.83;;
77451;SDS011;66537;52.370;4.832;2023-05-10T00:22:50;57.85;;;28.58;;
77451;SDS011;66537;52.370;4.832;2023-05-10T00:25:16;54.97;;;28.45;;
77451;SDS011;66537;52.370;4.832;2023-05-10T00:27:41;52.10;;;28.80;;
77451;SDS011;66537;52.370;4.832;2023-05-10T00:30:07;59.10;;;30.23;;
77451;SDS011;66537;52.370;4.832;2023-05-10T00:32:32;57.42;;;29.35;;
77451;SDS011;66537;52.370;4.832;2023-05-10T00:34:58;46.63;;;26.87;;
77451;SDS011;66537;52.370;4.832;2023-05-10T00:37:23;60.63;;;27.27;;
77451;SDS011;66537;52.370;4.832;2023-05-10T00:39:49;61.95;;;29.20;;
77451;SDS011;66537;52.370;4.832;2023-05-10T00:42:14;52.97;;;28.10;;
77451;SDS011;66537;52.370;4.832;2023-05-10T00:44:39;63.10;;;29.30;;
77451;SDS011;66537;52.370;4.832;2023-05-10T00:47:05;52.75;;;27.80;;
77451;SDS011;66537;52.370;4.832;2023-05-10T00:49:30;60.78;;;30.15;;
77451;SDS011;66537;52.370;4.832;2023-05-10T00:51:56;50.63;;;26.38;;
77451;SDS011;66537;52.370;4.832;2023-05-10T00:54:22;66.45;;;31.15;;
77451;SDS011;66537;52.370;4.832;2023-05-10T00:56:47;60.75;;;27.50;;
77451;SDS011;66537;52.370;4.832;2023-05-10T00:59:17;51.88;;;28.20;;
77451;SDS011;66537;52.370;4.832;2023-05-10T01:01:46;53.03;;;27.75;;
77451;SDS011;66537;52.370;4.832;2023-05-10T01:04:12;53.58;;;26.85;;
77451;SDS011;66537;52.370;4.832;2023-05-10T01:06:39;47.70;;;25.00;;
77451;SDS011;66537;52.370;4.832;2023-05-10T01:09:04;36.03;;;20.65;;
77451;SDS011;66537;52.370;4.832;2023-05-10T01:11:31;51.05;;;26.88;;
77451;SDS011;66537;52.370;4.832;2023-05-10T01:13:58;56.08;;;27.70;;
77451;SDS011;66537;52.370;4.832;2023-05-10T01:16:24;46.83;;;25.65;;
77451;SDS011;66537;52.370;4.832;2023-05-10T01:18:51;45.38;;;24.83;;
77451;SDS011;66537;52.370;4.832;2023-05-10T01:21:19;41.10;;;23.20;;
77451;SDS011;66537;52.370;4.832;2023-05-10T01:29:17;45.72;;;25.98;;
77451;SDS011;66537;52.370;4.832;2023-05-10T01:35:06;50.42;;;26.25;;
77451;SDS011;66537;52.370;4.832;2023-05-10T01:37:42;44.22;;;25.35;;
77451;SDS011;66537;52.370;4.832;2023-05-10T01:40:32;53.08;;;26.58;;
77451;SDS011;66537;52.370;4.832;2023-05-10T01:43:03;42.60;;;22.35;;
77451;SDS011;66537;52.370;4.832;2023-05-10T01:45:55;56.28;;;28.90;;
77451;SDS011;66537;52.370;4.832;2023-05-10T01:48:23;51.88;;;26.17;;
77451;SDS011;66537;52.370;4.832;2023-05-10T01:50:52;45.15;;;23.48;;
77451;SDS011;66537;52.370;4.832;2023-05-10T01:53:18;54.15;;;27.42;;
77451;SDS011;66537;52.370;4.832;2023-05-10T01:55:46;47.67;;;25.35;;
77451;SDS011;66537;52.370;4.832;2023-05-10T01:58:14;60.72;;;27.92;;
77451;SDS011;66537;52.370;4.832;2023-05-10T02:00:44;52.22;;;27.33;;
77451;SDS011;66537;52.370;4.832;2023-05-10T02:03:11;48.97;;;26.20;;
77451;SDS011;66537;52.370;4.832;2023-05-10T02:05:37;59.85;;;28.60;;
77451;SDS011;66537;52.370;4.832;2023-05-10T02:08:07;50.85;;;26.63;;
77451;SDS011;66537;52.370;4.832;2023-05-10T02:10:34;57.28;;;28.08;;
77451;SDS011;66537;52.370;4.832;2023-05-10T02:13:00;55.90;;;27.42;;
77451;SDS011;66537;52.370;4.832;2023-05-10T02:15:27;53.75;;;25.85;;
77451;SDS011;66537;52.370;4.832;2023-05-10T02:17:55;73.57;;;30.25;;
77451;SDS011;66537;52.370;4.832;2023-05-10T02:20:22;67.18;;;28.80;;
77451;SDS011;66537;52.370;4.832;2023-05-10T02:22:50;65.40;;;29.60;;
77451;SDS011;66537;52.370;4.832;2023-05-10T02:25:17;63.85;;;29.55;;
77451;SDS011;66537;52.370;4.832;2023-05-10T02:27:45;61.55;;;28.55;;
77451;SDS011;66537;52.370;4.832;2023-05-10T02:30:12;70.70;;;30.52;;
77451;SDS011;66537;52.370;4.832;2023-05-10T02:32:38;52.67;;;25.35;;
77451;SDS011;66537;52.370;4.832;2023-05-10T02:35:05;68.82;;;29.70;;
77451;SDS011;66537;52.370;4.832;2023-05-10T02:37:31;53.92;;;25.20;;
77451;SDS011;66537;52.370;4.832;2023-05-10T02:39:58;62.65;;;28.75;;
77451;SDS011;66537;52.370;4.832;2023-05-10T02:42:25;59.00;;;28.35;;
77451;SDS011;66537;52.370;4.832;2023-05-10T02:44:53;65.60;;;31.25;;
77451;SDS011;66537;52.370;4.832;2023-05-10T02:47:24;68.20;;;31.52;;
77451;SDS011;66537;52.370;4.832;2023-05-10T02:49:49;65.88;;;31.27;;
77451;SDS011;66537;52.370;4.832;2023-05-10T02:52:16;78.22;;;34.30;;
77451;SDS011;66537;52.370;4.832;2023-05-10T02:54:50;73.10;;;31.15;;
77451;SDS011;66537;52.370;4.832;2023-05-10T02:57:20;64.43;;;28.05;;
77451;SDS011;66537;52.370;4.832;2023-05-10T02:59:49;72.38;;;30.92;;
77451;SDS011;66537;52.370;4.832;2023-05-10T03:02:15;69.07;;;28.77;;
77451;SDS011;66537;52.370;4.832;2023-05-10T03:04:40;70.60;;;30.02;;
77451;SDS011;66537;52.370;4.832;2023-05-10T03:07:06;64.57;;;28.80;;
77451;SDS011;66537;52.370;4.832;2023-05-10T03:09:32;82.72;;;34.22;;
77451;SDS011;66537;52.370;4.832;2023-05-10T03:14:53;83.35;;;30.92;;
77451;SDS011;66537;52.370;4.832;2023-05-10T03:17:40;41.38;;;15.40;;
77451;SDS011;66537;52.370;4.832;2023-05-10T03:20:10;39.70;;;15.60;;
77451;SDS011;66537;52.370;4.832;2023-05-10T03:22:38;50.05;;;18.30;;
77451;SDS011;66537;52.370;4.832;2023-05-10T03:25:10;44.05;;;16.42;;
77451;SDS011;66537;52.370;4.832;2023-05-10T03:27:38;58.22;;;19.92;;
77451;SDS011;66537;52.370;4.832;2023-05-10T03:30:05;47.70;;;18.67;;
77451;SDS011;66537;52.370;4.832;2023-05-10T03:32:34;50.08;;;19.17;;
77451;SDS011;66537;52.370;4.832;2023-05-10T03:34:59;46.25;;;18.67;;
77451;SDS011;66537;52.370;4.832;2023-05-10T03:37:25;45.47;;;17.77;;
77451;SDS011;66537;52.370;4.832;2023-05-10T03:39:50;39.57;;;16.77;;
77451;SDS011;66537;52.370;4.832;2023-05-10T03:42:15;50.83;;;18.45;;
77451;SDS011;66537;52.370;4.832;2023-05-10T03:44:42;42.90;;;17.85;;
77451;SDS011;66537;52.370;4.832;2023-05-10T03:47:08;38.22;;;15.38;;
77451;SDS011;66537;52.370;4.832;2023-05-10T03:49:33;33.58;;;14.82;;
77451;SDS011;66537;52.370;4.832;2023-05-10T03:51:59;35.50;;;16.02;;
77451;SDS011;66537;52.370;4.832;2023-05-10T03:54:24;45.28;;;18.80;;
77451;SDS011;66537;52.370;4.832;2023-05-10T03:56:49;46.63;;;17.77;;
77451;SDS011;66537;52.370;4.832;2023-05-10T03:59:14;41.63;;;15.07;;
77451;SDS011;66537;52.370;4.832;2023-05-10T04:01:40;45.85;;;17.58;;
77451;SDS011;66537;52.370;4.832;2023-05-10T04:04:05;45.50;;;18.07;;
77451;SDS011;66537;52.370;4.832;2023-05-10T04:06:31;36.73;;;15.93;;
77451;SDS011;66537;52.370;4.832;2023-05-10T04:08:56;36.65;;;14.07;;
77451;SDS011;66537;52.370;4.832;2023-05-10T04:11:24;37.83;;;14.10;;
77451;SDS011;66537;52.370;4.832;2023-05-10T04:13:50;35.53;;;14.55;;
77451;SDS011;66537;52.370;4.832;2023-05-10T04:16:15;34.47;;;15.30;;
77451;SDS011;66537;52.370;4.832;2023-05-10T04:18:40;35.92;;;13.73;;
77451;SDS011;66537;52.370;4.832;2023-05-10T04:21:10;33.13;;;13.07;;
77451;SDS011;66537;52.370;4.832;2023-05-10T04:23:39;31.80;;;12.95;;
77451;SDS011;66537;52.370;4.832;2023-05-10T04:26:05;32.75;;;11.98;;
77451;SDS011;66537;52.370;4.832;2023-05-10T04:28:30;33.63;;;13.55;;
77451;SDS011;66537;52.370;4.832;2023-05-10T04:31:03;31.45;;;13.40;;
77451;SDS011;66537;52.370;4.832;2023-05-10T04:33:32;33.47;;;11.55;;
77451;SDS011;66537;52.370;4.832;2023-05-10T04:35:58;29.00;;;12.70;;
77451;SDS011;66537;52.370;4.832;2023-05-10T04:38:24;29.50;;;12.77;;
77451;SDS011;66537;52.370;4.832;2023-05-10T04:40:50;29.15;;;11.98;;
77451;SDS011;66537;52.370;4.832;2023-05-10T04:43:15;34.47;;;13.43;;
77451;SDS011;66537;52.370;4.832;2023-05-10T04:45:41;29.83;;;13.10;;
77451;SDS011;66537;52.370;4.832;2023-05-10T04:48:06;33.30;;;14.57;;
77451;SDS011;66537;52.370;4.832;2023-05-10T04:50:32;30.05;;;14.95;;
77451;SDS011;66537;52.370;4.832;2023-05-10T04:52:57;29.38;;;12.20;;
77451;SDS011;66537;52.370;4.832;2023-05-10T04:55:23;30.53;;;12.50;;
77451;SDS011;66537;52.370;4.832;2023-05-10T04:57:48;27.73;;;12.63;;
77451;SDS011;66537;52.370;4.832;2023-05-10T05:00:13;32.58;;;13.70;;
77451;SDS011;66537;52.370;4.832;2023-05-10T05:02:42;28.27;;;13.30;;
77451;SDS011;66537;52.370;4.832;2023-05-10T05:05:08;30.45;;;12.38;;
77451;SDS011;66537;52.370;4.832;2023-05-10T05:07:34;30.80;;;13.33;;
77451;SDS011;66537;52.370;4.832;2023-05-10T05:09:59;39.60;;;13.80;;
77451;SDS011;66537;52.370;4.832;2023-05-10T05:12:25;35.22;;;13.77;;
77451;SDS011;66537;52.370;4.832;2023-05-10T05:14:50;30.50;;;14.73;;
77451;SDS011;66537;52.370;4.832;2023-05-10T05:17:15;31.33;;;14.20;;
77451;SDS011;66537;52.370;4.832;2023-05-10T05:19:41;31.13;;;12.15;;
77451;SDS011;66537;52.370;4.832;2023-05-10T05:22:06;29.60;;;13.00;;
77451;SDS011;66537;52.370;4.832;2023-05-10T05:24:36;29.85;;;13.02;;
77451;SDS011;66537;52.370;4.832;2023-05-10T05:27:04;31.98;;;14.00;;
77451;SDS011;66537;52.370;4.832;2023-05-10T05:29:30;28.05;;;12.70;;
77451;SDS011;66537;52.370;4.832;2023-05-10T05:31:56;29.08;;;13.18;;
77451;SDS011;66537;52.370;4.832;2023-05-10T05:34:21;30.23;;;13.03;;
77451;SDS011;66537;52.370;4.832;2023-05-10T05:36:47;30.40;;;13.07;;
77451;SDS011;66537;52.370;4.832;2023-05-10T05:39:13;30.67;;;12.88;;
77451;SDS011;66537;52.370;4.832;2023-05-10T05:41:38;29.23;;;13.75;;
77451;SDS011;66537;52.370;4.832;2023-05-10T05:44:03;31.13;;;13.20;;
77451;SDS011;66537;52.370;4.832;2023-05-10T05:46:29;27.30;;;12.88;;
77451;SDS011;66537;52.370;4.832;2023-05-10T05:48:54;30.95;;;12.90;;
77451;SDS011;66537;52.370;4.832;2023-05-10T05:51:19;34.23;;;13.80;;
77451;SDS011;66537;52.370;4.832;2023-05-10T05:53:45;29.15;;;12.32;;
77451;SDS011;66537;52.370;4.832;2023-05-10T05:56:10;31.00;;;14.90;;
77451;SDS011;66537;52.370;4.832;2023-05-10T05:58:35;30.15;;;12.68;;
77451;SDS011;66537;52.370;4.832;2023-05-10T06:01:01;27.07;;;11.50;;
77451;SDS011;66537;52.370;4.832;2023-05-10T06:03:26;25.00;;;11.38;;
77451;SDS011;66537;52.370;4.832;2023-05-10T06:05:51;25.93;;;11.90;;
77451;SDS011;66537;52.370;4.832;2023-05-10T06:08:17;24.00;;;11.13;;
77451;SDS011;66537;52.370;4.832;2023-05-10T06:10:42;28.13;;;13.13;;
77451;SDS011;66537;52.370;4.832;2023-05-10T06:13:07;27.75;;;11.65;;
77451;SDS011;66537;52.370;4.832;2023-05-10T06:15:33;25.73;;;10.97;;
77451;SDS011;66537;52.370;4.832;2023-05-10T06:17:59;25.30;;;10.93;;
77451;SDS011;66537;52.370;4.832;2023-05-10T06:20:25;27.48;;;11.77;;
77451;SDS011;66537;52.370;4.832;2023-05-10T06:22:50;28.30;;;11.50;;
77451;SDS011;66537;52.370;4.832;2023-05-10T06:25:15;23.03;;;11.43;;
77451;SDS011;66537;52.370;4.832;2023-05-10T06:27:42;25.52;;;11.75;;
77451;SDS011;66537;52.370;4.832;2023-05-10T06:30:08;24.80;;;11.10;;
77451;SDS011;66537;52.370;4.832;2023-05-10T06:32:34;27.83;;;11.68;;
77451;SDS011;66537;52.370;4.832;2023-05-10T06:35:00;23.83;;;10.40;;
77451;SDS011;66537;52.370;4.832;2023-05-10T06:37:25;23.08;;;10.35;;
77451;SDS011;66537;52.370;4.832;2023-05-10T06:39:50;26.97;;;11.50;;
77451;SDS011;66537;52.370;4.832;2023-05-10T06:42:16;26.17;;;12.07;;
77451;SDS011;66537;52.370;4.832;2023-05-10T06:44:41;25.20;;;12.13;;
77451;SDS011;66537;52.370;4.832;2023-05-10T06:47:06;23.70;;;10.48;;
77451;SDS011;66537;52.370;4.832;2023-05-10T06:49:32;23.38;;;10.88;;
77451;SDS011;66537;52.370;4.832;2023-05-10T06:51:57;22.03;;;10.60;;
77451;SDS011;66537;52.370;4.832;2023-05-10T06:54:23;26.80;;;11.63;;
77451;SDS011;66537;52.370;4.832;2023-05-10T06:56:48;29.05;;;10.93;;
77451;SDS011;66537;52.370;4.832;2023-05-10T06:59:14;28.10;;;12.50;;
77451;SDS011;66537;52.370;4.832;2023-05-10T07:01:41;24.88;;;11.80;;
77451;SDS011;66537;52.370;4.832;2023-05-10T07:04:06;25.70;;;11.45;;
77451;SDS011;66537;52.370;4.832;2023-05-10T07:06:32;26.77;;;11.23;;
77451;SDS011;66537;52.370;4.832;2023-05-10T07:08:58;24.25;;;11.15;;
77451;SDS011;66537;52.370;4.832;2023-05-10T07:11:24;21.25;;;10.40;;
77451;SDS011;66537;52.370;4.832;2023-05-10T07:13:49;20.90;;;10.90;;
77451;SDS011;66537;52.370;4.832;2023-05-10T07:16:14;23.83;;;10.97;;
77451;SDS011;66537;52.370;4.832;2023-05-10T07:18:40;26.42;;;11.60;;
77451;SDS011;66537;52.370;4.832;2023-05-10T07:21:05;18.70;;;10.75;;
77451;SDS011;66537;52.370;4.832;2023-05-10T07:23:30;22.48;;;10.65;;
77451;SDS011;66537;52.370;4.832;2023-05-10T07:25:56;23.40;;;10.52;;
77451;SDS011;66537;52.370;4.832;2023-05-10T07:28:22;19.38;;;9.27;;
77451;SDS011;66537;52.370;4.832;2023-05-10T07:30:48;22.20;;;10.05;;
77451;SDS011;66537;52.370;4.832;2023-05-10T07:33:14;20.03;;;9.47;;
77451;SDS011;66537;52.370;4.832;2023-05-10T07:35:40;19.35;;;9.02;;
77451;SDS011;66537;52.370;4.832;2023-05-10T07:38:06;19.85;;;8.77;;
77451;SDS011;66537;52.370;4.832;2023-05-10T07:40:31;19.00;;;8.23;;
77451;SDS011;66537;52.370;4.832;2023-05-10T07:42:56;17.52;;;8.18;;
77451;SDS011;66537;52.370;4.832;2023-05-10T07:45:22;16.20;;;7.07;;
77451;SDS011;66537;52.370;4.832;2023-05-10T07:47:48;16.25;;;7.05;;
77451;SDS011;66537;52.370;4.832;2023-05-10T07:50:14;18.30;;;7.43;;
77451;SDS011;66537;52.370;4.832;2023-05-10T07:52:39;15.02;;;7.20;;
77451;SDS011;66537;52.370;4.832;2023-05-10T07:55:05;13.88;;;6.45;;
77451;SDS011;66537;52.370;4.832;2023-05-10T07:57:32;12.82;;;5.95;;
77451;SDS011;66537;52.370;4.832;2023-05-10T07:59:58;16.77;;;6.78;;
77451;SDS011;66537;52.370;4.832;2023-05-10T08:02:23;13.50;;;6.40;;
77451;SDS011;66537;52.370;4.832;2023-05-10T08:04:48;11.95;;;6.57;;
77451;SDS011;66537;52.370;4.832;2023-05-10T08:07:14;12.50;;;6.18;;
77451;SDS011;66537;52.370;4.832;2023-05-10T08:09:39;14.70;;;6.45;;
77451;SDS011;66537;52.370;4.832;2023-05-10T08:12:05;13.53;;;7.07;;
77451;SDS011;66537;52.370;4.832;2023-05-10T08:14:30;15.82;;;6.00;;
77451;SDS011;66537;52.370;4.832;2023-05-10T08:16:56;19.80;;;7.72;;
77451;SDS011;66537;52.370;4.832;2023-05-10T08:19:21;12.70;;;5.93;;
77451;SDS011;66537;52.370;4.832;2023-05-10T08:21:47;11.77;;;6.00;;
77451;SDS011;66537;52.370;4.832;2023-05-10T08:24:13;10.32;;;5.68;;
77451;SDS011;66537;52.370;4.832;2023-05-10T08:26:38;12.00;;;5.60;;
77451;SDS011;66537;52.370;4.832;2023-05-10T08:29:03;12.48;;;5.68;;
77451;SDS011;66537;52.370;4.832;2023-05-10T08:31:29;13.80;;;6.18;;
77451;SDS011;66537;52.370;4.832;2023-05-10T08:33:54;16.40;;;6.65;;
77451;SDS011;66537;52.370;4.832;2023-05-10T08:36:20;12.52;;;5.72;;
77451;SDS011;66537;52.370;4.832;2023-05-10T08:38:50;11.13;;;4.72;;
77451;SDS011;66537;52.370;4.832;2023-05-10T08:41:17;11.93;;;5.65;;
77451;SDS011;66537;52.370;4.832;2023-05-10T08:43:45;13.07;;;5.47;;
77451;SDS011;66537;52.370;4.832;2023-05-10T08:46:11;13.95;;;5.13;;
77451;SDS011;66537;52.370;4.832;2023-05-10T08:48:41;11.70;;;5.75;;
77451;SDS011;66537;52.370;4.832;2023-05-10T08:51:08;11.57;;;6.30;;
77451;SDS011;66537;52.370;4.832;2023-05-10T08:53:36;11.57;;;5.57;;
77451;SDS011;66537;52.370;4.832;2023-05-10T08:56:02;11.30;;;4.60;;
77451;SDS011;66537;52.370;4.832;2023-05-10T08:58:28;12.20;;;4.93;;
77451;SDS011;66537;52.370;4.832;2023-05-10T09:00:54;10.90;;;5.13;;
77451;SDS011;66537;52.370;4.832;2023-05-10T09:03:20;11.30;;;5.13;;
77451;SDS011;66537;52.370;4.832;2023-05-10T09:05:46;13.60;;;4.97;;
77451;SDS011;66537;52.370;4.832;2023-05-10T09:08:12;11.98;;;4.80;;
77451;SDS011;66537;52.370;4.832;2023-05-10T09:10:38;10.02;;;4.68;;
77451;SDS011;66537;52.370;4.832;2023-05-10T09:13:05;12.93;;;5.50;;
77451;SDS011;66537;52.370;4.832;2023-05-10T09:15:32;10.02;;;5.03;;
77451;SDS011;66537;52.370;4.832;2023-05-10T09:17:57;12.07;;;4.97;;
77451;SDS011;66537;52.370;4.832;2023-05-10T09:20:24;11.57;;;4.07;;
77451;SDS011;66537;52.370;4.832;2023-05-10T09:22:49;11.65;;;4.57;;
77451;SDS011;66537;52.370;4.832;2023-05-10T09:25:16;11.57;;;4.90;;
77451;SDS011;66537;52.370;4.832;2023-05-10T09:27:44;13.57;;;5.20;;
77451;SDS011;66537;52.370;4.832;2023-05-10T09:30:11;10.18;;;4.65;;
77451;SDS011;66537;52.370;4.832;2023-05-10T09:32:44;11.25;;;4.38;;
77451;SDS011;66537;52.370;4.832;2023-05-10T09:35:11;10.63;;;5.40;;
77451;SDS011;66537;52.370;4.832;2023-05-10T09:37:40;13.10;;;6.00;;
77451;SDS011;66537;52.370;4.832;2023-05-10T09:40:07;10.85;;;4.32;;
77451;SDS011;66537;52.370;4.832;2023-05-10T09:42:36;10.82;;;4.45;;
77451;SDS011;66537;52.370;4.832;2023-05-10T09:45:02;10.93;;;4.00;;
77451;SDS011;66537;52.370;4.832;2023-05-10T09:47:32;10.70;;;4.18;;
77451;SDS011;66537;52.370;4.832;2023-05-10T09:49:58;11.20;;;4.55;;
77451;SDS011;66537;52.370;4.832;2023-05-10T09:52:28;9.98;;;3.97;;
77451;SDS011;66537;52.370;4.832;2023-05-10T09:54:54;12.95;;;3.67;;
77451;SDS011;66537;52.370;4.832;2023-05-10T09:57:20;9.00;;;3.63;;
77451;SDS011;66537;52.370;4.832;2023-05-10T09:59:47;9.88;;;4.65;;
77451;SDS011;66537;52.370;4.832;2023-05-10T10:02:13;12.50;;;4.53;;
77451;SDS011;66537;52.370;4.832;2023-05-10T10:04:39;12.20;;;4.20;;
77451;SDS011;66537;52.370;4.832;2023-05-10T10:07:05;10.15;;;4.25;;
77451;SDS011;66537;52.370;4.832;2023-05-10T10:09:31;9.93;;;4.00;;
77451;SDS011;66537;52.370;4.832;2023-05-10T10:11:58;8.98;;;3.97;;
77451;SDS011;66537;52.370;4.832;2023-05-10T10:14:25;8.40;;;3.47;;
77451;SDS011;66537;52.370;4.832;2023-05-10T10:16:50;8.88;;;3.72;;
77451;SDS011;66537;52.370;4.832;2023-05-10T10:19:16;8.35;;;3.70;;
77451;SDS011;66537;52.370;4.832;2023-05-10T10:21:46;9.25;;;4.15;;
77451;SDS011;66537;52.370;4.832;2023-05-10T10:24:11;8.98;;;4.10;;
77451;SDS011;66537;52.370;4.832;2023-05-10T10:26:37;8.52;;;3.95;;
77451;SDS011;66537;52.370;4.832;2023-05-10T10:29:10;9.63;;;4.18;;
77451;SDS011;66537;52.370;4.832;2023-05-10T10:31:55;10.43;;;3.58;;
77451;SDS011;66537;52.370;4.832;2023-05-10T10:34:29;11.68;;;3.60;;
77451;SDS011;66537;52.370;4.832;2023-05-10T10:36:56;11.68;;;4.18;;
77451;SDS011;66537;52.370;4.832;2023-05-10T10:39:22;10.75;;;4.32;;
77451;SDS011;66537;52.370;4.832;2023-05-10T10:41:52;8.57;;;4.13;;
77451;SDS011;66537;52.370;4.832;2023-05-10T10:57:42;13.30;;;4.90;;
77451;SDS011;66537;52.370;4.832;2023-05-10T11:00:20;14.13;;;5.20;;
77451;SDS011;66537;52.370;4.832;2023-05-10T11:03:10;11.98;;;4.47;;
77451;SDS011;66537;52.370;4.832;2023-05-10T11:08:19;11.50;;;5.25;;
77451;SDS011;66537;52.370;4.832;2023-05-10T11:15:54;18.85;;;6.50;;
77451;SDS011;66537;52.370;4.832;2023-05-10T11:18:28;15.07;;;5.85;;
77451;SDS011;66537;52.370;4.832;2023-05-10T11:20:56;21.45;;;8.18;;
77451;SDS011;66537;52.370;4.832;2023-05-10T11:23:29;20.83;;;8.98;;
77451;SDS011;66537;52.370;4.832;2023-05-10T11:25:55;18.92;;;8.23;;
77451;SDS011;66537;52.370;4.832;2023-05-10T11:28:21;18.35;;;7.30;;
77451;SDS011;66537;52.370;4.832;2023-05-10T11:30:46;20.83;;;8.37;;
77451;SDS011;66537;52.370;4.832;2023-05-10T11:33:16;18.33;;;8.07;;
77451;SDS011;66537;52.370;4.832;2023-05-10T11:35:42;18.80;;;8.05;;
77451;SDS011;66537;52.370;4.832;2023-05-10T11:38:08;19.75;;;8.13;;
77451;SDS011;66537;52.370;4.832;2023-05-10T11:40:37;17.83;;;7.78;;
77451;SDS011;66537;52.370;4.832;2023-05-10T11:43:04;18.10;;;7.15;;
77451;SDS011;66537;52.370;4.832;2023-05-10T11:45:33;16.75;;;7.40;;
77451;SDS011;66537;52.370;4.832;2023-05-10T11:47:59;17.42;;;7.25;;
77451;SDS011;66537;52.370;4.832;2023-05-10T11:50:26;25.70;;;11.65;;
77451;SDS011;66537;52.370;4.832;2023-05-10T11:52:52;17.77;;;7.70;;
77451;SDS011;66537;52.370;4.832;2023-05-10T11:55:18;18.42;;;7.50;;
77451;SDS011;66537;52.370;4.832;2023-05-10T11:57:44;20.15;;;8.05;;
77451;SDS011;66537;52.370;4.832;2023-05-10T12:00:11;22.48;;;9.05;;
77451;SDS011;66537;52.370;4.832;2023-05-10T12:02:37;18.00;;;6.82;;
77451;SDS011;66537;52.370;4.832;2023-05-10T12:05:03;13.95;;;6.15;;
77451;SDS011;66537;52.370;4.832;2023-05-10T12:07:30;14.82;;;5.78;;
77451;SDS011;66537;52.370;4.832;2023-05-10T12:10:11;15.35;;;6.88;;
77451;SDS011;66537;52.370;4.832;2023-05-10T12:12:44;14.82;;;5.90;;
77451;SDS011;66537;52.370;4.832;2023-05-10T12:15:16;14.07;;;6.75;;
77451;SDS011;66537;52.370;4.832;2023-05-10T12:17:49;17.88;;;6.90;;
77451;SDS011;66537;52.370;4.832;2023-05-10T12:22:43;13.93;;;6.63;;
77451;SDS011;66537;52.370;4.832;2023-05-10T12:25:09;13.38;;;5.93;;
77451;SDS011;66537;52.370;4.832;2023-05-10T12:27:35;10.82;;;5.53;;
77451;SDS011;66537;52.370;4.832;2023-05-10T12:30:01;12.93;;;5.65;;
77451;SDS011;66537;52.370;4.832;2023-05-10T12:32:37;13.98;;;5.43;;
77451;SDS011;66537;52.370;4.832;2023-05-10T12:35:04;14.05;;;6.63;;
77451;SDS011;66537;52.370;4.832;2023-05-10T12:37:29;14.27;;;6.55;;
77451;SDS011;66537;52.370;4.832;2023-05-10T12:39:55;16.30;;;8.13;;
77451;SDS011;66537;52.370;4.832;2023-05-10T12:42:20;28.67;;;8.53;;
77451;SDS011;66537;52.370;4.832;2023-05-10T12:44:45;17.87;;;7.83;;
77451;SDS011;66537;52.370;4.832;2023-05-10T12:47:11;16.97;;;7.47;;
77451;SDS011;66537;52.370;4.832;2023-05-10T12:49:36;11.90;;;5.77;;
77451;SDS011;66537;52.370;4.832;2023-05-10T12:52:01;13.55;;;5.72;;
77451;SDS011;66537;52.370;4.832;2023-05-10T12:54:27;13.95;;;4.97;;
77451;SDS011;66537;52.370;4.832;2023-05-10T12:56:52;14.57;;;6.60;;
77451;SDS011;66537;52.370;4.832;2023-05-10T12:59:18;14.17;;;7.10;;
77451;SDS011;66537;52.370;4.832;2023-05-10T13:01:43;16.08;;;7.05;;
77451;SDS011;66537;52.370;4.832;2023-05-10T13:04:08;12.07;;;5.97;;
77451;SDS011;66537;52.370;4.832;2023-05-10T13:06:34;12.20;;;5.22;;
77451;SDS011;66537;52.370;4.832;2023-05-10T13:09:00;12.45;;;5.75;;
77451;SDS011;66537;52.370;4.832;2023-05-10T13:11:25;14.52;;;5.78;;
77451;SDS011;66537;52.370;4.832;2023-05-10T13:13:51;11.98;;;6.45;;
77451;SDS011;66537;52.370;4.832;2023-05-10T13:16:16;14.52;;;6.10;;
77451;SDS011;66537;52.370;4.832;2023-05-10T13:18:42;12.53;;;6.00;;
77451;SDS011;66537;52.370;4.832;2023-05-10T13:21:07;13.63;;;5.90;;
77451;SDS011;66537;52.370;4.832;2023-05-10T13:23:33;11.20;;;5.53;;
77451;SDS011;66537;52.370;4.832;2023-05-10T13:25:59;11.52;;;5.18;;
77451;SDS011;66537;52.370;4.832;2023-05-10T13:28:24;12.43;;;5.43;;
77451;SDS011;66537;52.370;4.832;2023-05-10T13:30:51;12.07;;;5.57;;
77451;SDS011;66537;52.370;4.832;2023-05-10T13:33:16;14.02;;;5.63;;
77451;SDS011;66537;52.370;4.832;2023-05-10T13:35:42;13.68;;;5.65;;
77451;SDS011;66537;52.370;4.832;2023-05-10T13:38:07;11.68;;;6.05;;
77451;SDS011;66537;52.370;4.832;2023-05-10T13:40:32;14.27;;;6.32;;
77451;SDS011;66537;52.370;4.832;2023-05-10T13:42:58;14.90;;;5.97;;
77451;SDS011;66537;52.370;4.832;2023-05-10T13:45:24;18.40;;;7.22;;
77451;SDS011;66537;52.370;4.832;2023-05-10T13:47:49;17.73;;;6.27;;
77451;SDS011;66537;52.370;4.832;2023-05-10T13:50:14;16.85;;;6.28;;
77451;SDS011;66537;52.370;4.832;2023-05-10T13:52:40;14.13;;;6.28;;
77451;SDS011;66537;52.370;4.832;2023-05-10T13:55:05;12.70;;;5.70;;
77451;SDS011;66537;52.370;4.832;2023-05-10T13:57:30;14.35;;;6.60;;
77451;SDS011;66537;52.370;4.832;2023-05-10T13:59:56;14.35;;;5.88;;
77451;SDS011;66537;52.370;4.832;2023-05-10T14:02:22;15.05;;;6.90;;
77451;SDS011;66537;52.370;4.832;2023-05-10T14:04:47;12.82;;;5.82;;
77451;SDS011;66537;52.370;4.832;2023-05-10T14:07:13;12.63;;;5.75;;
77451;SDS011;66537;52.370;4.832;2023-05-10T14:09:38;15.00;;;6.78;;
77451;SDS011;66537;52.370;4.832;2023-05-10T14:12:04;12.83;;;5.63;;
77451;SDS011;66537;52.370;4.832;2023-05-10T14:14:29;14.73;;;6.03;;
77451;SDS011;66537;52.370;4.832;2023-05-10T14:16:54;12.77;;;5.90;;
77451;SDS011;66537;52.370;4.832;2023-05-10T14:19:20;16.08;;;6.80;;
77451;SDS011;66537;52.370;4.832;2023-05-10T14:21:45;13.00;;;5.40;;
77451;SDS011;66537;52.370;4.832;2023-05-10T14:24:10;15.32;;;6.53;;
77451;SDS011;66537;52.370;4.832;2023-05-10T14:26:36;13.40;;;5.45;;
77451;SDS011;66537;52.370;4.832;2023-05-10T14:29:02;12.30;;;5.25;;
77451;SDS011;66537;52.370;4.832;2023-05-10T14:31:27;11.57;;;4.70;;
77451;SDS011;66537;52.370;4.832;2023-05-10T14:33:55;13.90;;;5.82;;
77451;SDS011;66537;52.370;4.832;2023-05-10T14:36:20;14.48;;;5.82;;
77451;SDS011;66537;52.370;4.832;2023-05-10T14:38:46;13.47;;;6.03;;
77451;SDS011;66537;52.370;4.832;2023-05-10T14:41:11;14.70;;;6.67;;
77451;SDS011;66537;52.370;4.832;2023-05-10T14:43:39;18.58;;;7.57;;
77451;SDS011;66537;52.370;4.832;2023-05-10T14:46:06;17.38;;;6.97;;
77451;SDS011;66537;52.370;4.832;2023-05-10T14:48:31;15.35;;;7.18;;
77451;SDS011;66537;52.370;4.832;2023-05-10T14:50:57;17.97;;;6.90;;
77451;SDS011;66537;52.370;4.832;2023-05-10T14:53:22;18.00;;;7.93;;
77451;SDS011;66537;52.370;4.832;2023-05-10T14:55:47;24.00;;;9.23;;
77451;SDS011;66537;52.370;4.832;2023-05-10T14:58:13;25.53;;;9.63;;
77451;SDS011;66537;52.370;4.832;2023-05-10T15:00:38;21.30;;;8.97;;